sensor_id;sensor_type;location;lat;lon;timestamp;P1;durP1;ratioP1;P2;durP2;ratioP2
57307;SDS011;43152;50.968;18.214;2023-02-13T00:00:16;25.20;;;8.60;;
57307;SDS011;43152;50.968;18.214;2023-02-13T00:17:17;41.30;;;11.80;;
57307;SDS011;43152;50.968;18.214;2023-02-13T00:26:59;31.50;;;9.50;;
57307;SDS011;43152;50.968;18.214;2023-02-13T00:36:41;29.80;;;11.40;;
57307;SDS011;43152;50.968;18.214;2023-02-13T00:46:25;34.70;;;10.40;;
57307;SDS011;43152;50.968;18.214;2023-02-13T00:56:07;37.90;;;11.00;;
57307;SDS011;43152;50.968;18.214;2023-02-13T01:05:50;36.30;;;8.90;;
57307;SDS011;43152;50.968;18.214;2023-02-13T01:15:34;28.30;;;9.60;;
57307;SDS011;43152;50.968;18.214;2023-02-13T01:25:18;30.30;;;9.10;;
57307;SDS011;43152;50.968;18.214;2023-02-13T01:35:04;28.70;;;10.30;;
57307;SDS011;43152;50.968;18.214;2023-02-13T01:54:40;24.40;;;7.10;;
57307;SDS011;43152;50.968;18.214;2023-02-13T02:04:28;25.70;;;8.10;;
57307;SDS011;43152;50.968;18.214;2023-02-13T02:14:25;29.30;;;9.60;;
57307;SDS011;43152;50.968;18.214;2023-02-13T02:56:59;41.10;;;12.70;;
57307;SDS011;43152;50.968;18.214;2023-02-13T03:07:43;29.40;;;7.50;;
57307;SDS011;43152;50.968;18.214;2023-02-13T03:18:30;28.70;;;9.20;;
57307;SDS011;43152;50.968;18.214;2023-02-13T03:29:53;40.40;;;11.90;;
57307;SDS011;43152;50.968;18.214;2023-02-13T03:41:12;41.50;;;11.10;;
57307;SDS011;43152;50.968;18.214;2023-02-13T03:51:41;31.90;;;10.90;;
57307;SDS011;43152;50.968;18.214;2023-02-13T04:02:32;28.00;;;10.20;;
57307;SDS011;43152;50.968;18.214;2023-02-13T04:23:09;28.50;;;8.10;;
57307;SDS011;43152;50.968;18.214;2023-02-13T04:32:52;25.70;;;9.60;;
57307;SDS011;43152;50.968;18.214;2023-02-13T04:42:34;19.10;;;7.70;;
57307;SDS011;43152;50.968;18.214;2023-02-13T04:52:17;24.60;;;8.70;;
57307;SDS011;43152;50.968;18.214;2023-02-13T05:01:59;26.40;;;8.00;;
57307;SDS011;43152;50.968;18.214;2023-02-13T05:11:41;12.50;;;5.20;;
57307;SDS011;43152;50.968;18.214;2023-02-13T05:21:25;33.20;;;10.00;;
57307;SDS011;43152;50.968;18.214;2023-02-13T05:31:45;36.50;;;9.80;;
57307;SDS011;43152;50.968;18.214;2023-02-13T05:41:28;32.80;;;9.20;;
57307;SDS011;43152;50.968;18.214;2023-02-13T05:51:10;21.70;;;8.30;;
57307;SDS011;43152;50.968;18.214;2023-02-13T06:00:57;24.60;;;9.50;;
57307;SDS011;43152;50.968;18.214;2023-02-13T06:10:41;25.80;;;9.10;;
57307;SDS011;43152;50.968;18.214;2023-02-13T06:20:23;57.20;;;22.30;;
57307;SDS011;43152;50.968;18.214;2023-02-13T06:30:06;31.30;;;16.40;;
57307;SDS011;43152;50.968;18.214;2023-02-13T06:39:49;53.80;;;23.30;;
57307;SDS011;43152;50.968;18.214;2023-02-13T06:49:31;84.10;;;28.80;;
57307;SDS011;43152;50.968;18.214;2023-02-13T06:59:13;38.70;;;16.50;;
57307;SDS011;43152;50.968;18.214;2023-02-13T07:08:55;49.60;;;16.20;;
57307;SDS011;43152;50.968;18.214;2023-02-13T07:18:39;41.00;;;13.40;;
57307;SDS011;43152;50.968;18.214;2023-02-13T07:28:26;32.70;;;10.30;;
57307;SDS011;43152;50.968;18.214;2023-02-13T07:38:12;27.10;;;10.60;;
57307;SDS011;43152;50.968;18.214;2023-02-13T07:47:55;26.30;;;9.90;;
57307;SDS011;43152;50.968;18.214;2023-02-13T07:57:45;16.10;;;6.00;;
57307;SDS011;43152;50.968;18.214;2023-02-13T08:07:27;20.30;;;6.10;;
57307;SDS011;43152;50.968;18.214;2023-02-13T08:17:29;8.50;;;3.60;;
57307;SDS011;43152;50.968;18.214;2023-02-13T08:27:12;19.60;;;7.20;;
57307;SDS011;43152;50.968;18.214;2023-02-13T08:36:55;23.70;;;10.10;;
57307;SDS011;43152;50.968;18.214;2023-02-13T08:46:38;44.70;;;17.00;;
57307;SDS011;43152;50.968;18.214;2023-02-13T08:56:19;56.80;;;20.60;;
57307;SDS011;43152;50.968;18.214;2023-02-13T09:06:05;32.80;;;13.20;;
57307;SDS011;43152;50.968;18.214;2023-02-13T09:15:48;34.00;;;12.90;;
57307;SDS011;43152;50.968;18.214;2023-02-13T09:25:31;19.90;;;7.70;;
57307;SDS011;43152;50.968;18.214;2023-02-13T09:35:15;51.20;;;18.40;;
57307;SDS011;43152;50.968;18.214;2023-02-13T09:45:11;60.10;;;16.70;;
57307;SDS011;43152;50.968;18.214;2023-02-13T09:55:13;34.00;;;13.70;;
57307;SDS011;43152;50.968;18.214;2023-02-13T10:16:05;31.90;;;14.30;;
57307;SDS011;43152;50.968;18.214;2023-02-13T10:26:20;51.50;;;19.40;;
57307;SDS011;43152;50.968;18.214;2023-02-13T10:36:59;32.20;;;15.00;;
57307;SDS011;43152;50.968;18.214;2023-02-13T10:47:00;10.50;;;4.40;;
57307;SDS011;43152;50.968;18.214;2023-02-13T10:57:30;25.20;;;8.70;;
57307;SDS011;43152;50.968;18.214;2023-02-13T11:07:45;23.00;;;9.90;;
57307;SDS011;43152;50.968;18.214;2023-02-13T11:17:36;24.30;;;7.60;;
57307;SDS011;43152;50.968;18.214;2023-02-13T11:27:41;17.00;;;6.50;;
57307;SDS011;43152;50.968;18.214;2023-02-13T11:38:12;7.80;;;2.90;;
57307;SDS011;43152;50.968;18.214;2023-02-13T11:55:37;14.70;;;3.80;;
57307;SDS011;43152;50.968;18.214;2023-02-13T12:05:22;11.00;;;5.00;;
57307;SDS011;43152;50.968;18.214;2023-02-13T12:22:59;12.60;;;5.00;;
57307;SDS011;43152;50.968;18.214;2023-02-13T12:43:52;8.30;;;2.40;;
57307;SDS011;43152;50.968;18.214;2023-02-13T12:55:22;10.40;;;3.30;;
57307;SDS011;43152;50.968;18.214;2023-02-13T13:26:34;10.10;;;4.80;;
57307;SDS011;43152;50.968;18.214;2023-02-13T13:36:39;23.10;;;3.50;;
57307;SDS011;43152;50.968;18.214;2023-02-13T14:07:34;11.50;;;3.70;;
57307;SDS011;43152;50.968;18.214;2023-02-13T14:38:33;13.50;;;4.40;;
57307;SDS011;43152;50.968;18.214;2023-02-13T14:48:32;15.00;;;4.90;;
57307;SDS011;43152;50.968;18.214;2023-02-13T14:58:32;41.40;;;17.60;;
57307;SDS011;43152;50.968;18.214;2023-02-13T15:08:27;38.30;;;10.80;;
57307;SDS011;43152;50.968;18.214;2023-02-13T15:18:19;22.20;;;7.80;;
57307;SDS011;43152;50.968;18.214;2023-02-13T15:28:19;28.80;;;9.10;;
57307;SDS011;43152;50.968;18.214;2023-02-13T15:48:43;27.60;;;8.10;;
57307;SDS011;43152;50.968;18.214;2023-02-13T15:58:42;25.90;;;6.50;;
57307;SDS011;43152;50.968;18.214;2023-02-13T16:18:25;29.30;;;12.10;;
57307;SDS011;43152;50.968;18.214;2023-02-13T16:38:02;24.20;;;7.90;;
57307;SDS011;43152;50.968;18.214;2023-02-13T16:55:57;15.20;;;7.30;;
57307;SDS011;43152;50.968;18.214;2023-02-13T17:05:40;10.70;;;4.30;;
57307;SDS011;43152;50.968;18.214;2023-02-13T17:15:26;21.00;;;6.70;;
57307;SDS011;43152;50.968;18.214;2023-02-13T17:25:20;17.20;;;6.60;;
57307;SDS011;43152;50.968;18.214;2023-02-13T17:35:09;13.60;;;5.80;;
57307;SDS011;43152;50.968;18.214;2023-02-13T17:44:53;16.40;;;8.00;;
57307;SDS011;43152;50.968;18.214;2023-02-13T17:54:44;11.90;;;5.10;;
57307;SDS011;43152;50.968;18.214;2023-02-13T18:04:26;22.50;;;7.20;;
57307;SDS011;43152;50.968;18.214;2023-02-13T18:14:13;20.20;;;7.90;;
57307;SDS011;43152;50.968;18.214;2023-02-13T18:23:56;18.60;;;7.80;;
57307;SDS011;43152;50.968;18.214;2023-02-13T18:33:44;12.20;;;5.50;;
57307;SDS011;43152;50.968;18.214;2023-02-13T18:43:28;13.60;;;4.10;;
57307;SDS011;43152;50.968;18.214;2023-02-13T18:53:12;19.10;;;6.20;;
57307;SDS011;43152;50.968;18.214;2023-02-13T19:02:54;18.60;;;7.30;;
57307;SDS011;43152;50.968;18.214;2023-02-13T19:12:39;25.70;;;9.70;;
57307;SDS011;43152;50.968;18.214;2023-02-13T19:22:24;29.10;;;9.30;;
57307;SDS011;43152;50.968;18.214;2023-02-13T19:32:07;31.80;;;10.60;;
57307;SDS011;43152;50.968;18.214;2023-02-13T19:41:49;27.10;;;12.30;;
57307;SDS011;43152;50.968;18.214;2023-02-13T19:51:32;32.80;;;14.10;;
57307;SDS011;43152;50.968;18.214;2023-02-13T20:01:17;32.90;;;17.20;;
57307;SDS011;43152;50.968;18.214;2023-02-13T20:11:06;53.40;;;20.20;;
57307;SDS011;43152;50.968;18.214;2023-02-13T20:20:49;67.40;;;23.60;;
57307;SDS011;43152;50.968;18.214;2023-02-13T20:30:42;52.00;;;16.70;;
57307;SDS011;43152;50.968;18.214;2023-02-13T20:40:25;46.20;;;18.20;;
57307;SDS011;43152;50.968;18.214;2023-02-13T20:50:10;22.80;;;7.60;;
57307;SDS011;43152;50.968;18.214;2023-02-13T20:59:53;34.20;;;15.40;;
57307;SDS011;43152;50.968;18.214;2023-02-13T21:09:36;41.10;;;13.50;;
57307;SDS011;43152;50.968;18.214;2023-02-13T21:19:19;24.90;;;10.20;;
57307;SDS011;43152;50.968;18.214;2023-02-13T21:29:03;35.80;;;12.30;;
57307;SDS011;43152;50.968;18.214;2023-02-13T21:38:53;26.90;;;12.00;;
57307;SDS011;43152;50.968;18.214;2023-02-13T21:48:39;29.30;;;12.60;;
57307;SDS011;43152;50.968;18.214;2023-02-13T21:58:22;25.60;;;10.60;;
57307;SDS011;43152;50.968;18.214;2023-02-13T22:08:09;40.30;;;13.60;;
57307;SDS011;43152;50.968;18.214;2023-02-13T22:17:52;67.40;;;24.40;;
57307;SDS011;43152;50.968;18.214;2023-02-13T22:27:35;39.00;;;14.30;;
57307;SDS011;43152;50.968;18.214;2023-02-13T22:37:18;68.50;;;19.80;;
57307;SDS011;43152;50.968;18.214;2023-02-13T22:47:00;56.20;;;18.20;;
57307;SDS011;43152;50.968;18.214;2023-02-13T22:56:42;59.30;;;15.20;;
57307;SDS011;43152;50.968;18.214;2023-02-13T23:21:44;39.60;;;15.70;;
57307;SDS011;43152;50.968;18.214;2023-02-13T23:31:27;38.10;;;15.30;;
57307;SDS011;43152;50.968;18.214;2023-02-13T23:41:10;35.70;;;12.40;;
57307;SDS011;43152;50.968;18.214;2023-02-13T23:50:54;39.80;;;12.90;;
